Time;durP1;ratioP1;P1;durP2;ratioP2;P2;SDS_P1;SDS_P2;PMS_P1;PMS_P2;Temp;Humidity;BMP_temperature;BMP_pressure;BME280_temperature;BME280_humidity;BME280_pressure;Samples;Min_cycle;Max_cycle;Signal;HPM_P1;HPM_P2
2022/02/13 00:01:10;;;;;;;28.63;18.98;;;-1.10;99.90;;;;;;5081849;28;20543;-72
2022/02/13 00:03:36;;;;;;;24.05;15.80;;;-1.10;99.90;;;;;;5082701;28;20294;-73
2022/02/13 00:06:03;;;;;;;27.23;18.98;;;-1.00;99.90;;;;;;5082710;28;20224;-72
2022/02/13 00:08:30;;;;;;;24.70;17.58;;;-1.10;99.90;;;;;;5082861;28;20204;-73
2022/02/13 00:10:56;;;;;;;23.23;16.60;;;-1.10;99.90;;;;;;5082867;28;20204;-73
2022/02/13 00:13:23;;;;;;;25.17;17.60;;;-1.10;99.90;;;;;;5082270;28;20212;-73
2022/02/13 00:15:50;;;;;;;23.80;16.00;;;-1.20;99.90;;;;;;5082447;28;20690;-73
2022/02/13 00:18:16;;;;;;;23.42;15.85;;;-1.20;99.90;;;;;;5082766;28;20220;-72
2022/02/13 00:20:43;;;;;;;28.83;18.48;;;-1.20;99.90;;;;;;5082921;28;20200;-73
2022/02/13 00:23:09;;;;;;;22.90;15.25;;;-1.10;99.90;;;;;;5082533;28;20203;-73
2022/02/13 00:25:36;;;;;;;24.50;15.25;;;-1.20;99.90;;;;;;5080778;28;20204;-73
2022/02/13 00:28:03;;;;;;;23.08;15.25;;;-1.20;99.90;;;;;;5080155;28;20200;-73
2022/02/13 00:30:29;;;;;;;26.58;15.70;;;-1.20;99.90;;;;;;5079131;28;20226;-73
2022/02/13 00:32:56;;;;;;;23.02;14.75;;;-1.20;99.90;;;;;;5076549;28;20227;-73
2022/02/13 00:35:23;;;;;;;23.65;15.00;;;-1.30;99.90;;;;;;5077897;28;20207;-72
2022/02/13 00:37:49;;;;;;;23.83;14.70;;;-1.30;99.90;;;;;;5077975;28;20322;-73
2022/02/13 00:40:16;;;;;;;21.38;14.75;;;-1.40;99.90;;;;;;5077699;28;20219;-73
2022/02/13 00:42:43;;;;;;;24.42;15.70;;;-1.50;99.90;;;;;;5077851;28;20598;-74
2022/02/13 00:45:11;;;;;;;22.35;14.70;;;-1.60;99.90;;;;;;5077845;28;20200;-73
2022/02/13 00:47:38;;;;;;;24.02;15.35;;;-1.70;99.90;;;;;;5076117;28;20208;-73
2022/02/13 00:50:05;;;;;;;26.83;16.83;;;-1.80;99.90;;;;;;5078825;28;20615;-73
2022/02/13 00:52:32;;;;;;;29.23;15.40;;;-1.80;99.90;;;;;;5078120;28;20203;-74
2022/02/13 00:54:59;;;;;;;28.05;16.90;;;-1.80;99.90;;;;;;5080994;28;20282;-73
2022/02/13 00:57:25;;;;;;;27.25;18.75;;;-1.90;99.90;;;;;;5061472;28;20196;-73
2022/02/13 00:59:52;;;;;;;25.17;14.00;;;-1.90;99.90;;;;;;5060769;28;20216;-73
2022/02/13 01:02:18;;;;;;;21.90;15.00;;;-1.90;99.90;;;;;;5077149;28;20667;-73
2022/02/13 01:04:45;;;;;;;19.48;14.07;;;-1.90;99.90;;;;;;5078193;28;20207;-73
2022/02/13 01:07:11;;;;;;;21.27;14.43;;;-2.00;99.90;;;;;;5076112;28;20312;-73
2022/02/13 01:09:37;;;;;;;26.75;14.60;;;-2.00;99.90;;;;;;5060310;28;20203;-74
2022/02/13 01:12:04;;;;;;;22.65;14.88;;;-1.90;99.90;;;;;;5075591;28;20204;-74
2022/02/13 01:14:31;;;;;;;23.95;14.27;;;-1.80;99.90;;;;;;5077605;28;20207;-73
2022/02/13 01:16:58;;;;;;;24.75;15.02;;;-1.80;99.90;;;;;;5075764;28;20203;-73
2022/02/13 01:19:24;;;;;;;26.92;14.88;;;-1.90;99.90;;;;;;5076841;28;20619;-73
2022/02/13 01:21:51;;;;;;;25.92;15.82;;;-1.80;99.90;;;;;;5076584;28;20562;-74
2022/02/13 01:24:17;;;;;;;24.48;15.93;;;-1.80;99.90;;;;;;5075422;28;20219;-73
2022/02/13 01:26:43;;;;;;;27.17;17.13;;;-1.70;99.90;;;;;;5076418;28;20543;-74
2022/02/13 01:29:09;;;;;;;23.50;17.15;;;-1.80;99.90;;;;;;5075720;28;20196;-73
2022/02/13 01:31:38;;;;;;;38.38;19.30;;;-1.90;99.90;;;;;;5075899;28;20203;-73
2022/02/13 01:34:06;;;;;;;28.42;16.85;;;-1.80;99.90;;;;;;5074466;28;20228;-74
2022/02/13 01:36:32;;;;;;;30.30;18.67;;;-1.80;99.90;;;;;;5075929;28;20552;-73
2022/02/13 01:38:58;;;;;;;28.02;16.98;;;-1.70;99.90;;;;;;5075705;28;20219;-73
2022/02/13 01:41:25;;;;;;;31.48;18.17;;;-1.70;99.90;;;;;;5075615;28;20199;-74
2022/02/13 01:43:54;;;;;;;29.63;18.10;;;-1.70;99.90;;;;;;5075561;28;20289;-74
2022/02/13 01:46:21;;;;;;;26.75;16.20;;;-1.70;99.90;;;;;;5076237;28;20196;-74
2022/02/13 01:48:47;;;;;;;21.58;15.93;;;-1.60;99.90;;;;;;5075625;28;20196;-74
2022/02/13 01:51:13;;;;;;;28.35;16.52;;;-1.60;99.90;;;;;;5076412;28;20556;-74
2022/02/13 01:53:40;;;;;;;29.35;19.40;;;-1.60;99.90;;;;;;5075396;28;20211;-74
2022/02/13 01:56:06;;;;;;;24.92;16.70;;;-1.60;99.90;;;;;;5074441;28;20208;-73
2022/02/13 01:58:32;;;;;;;32.05;18.05;;;-1.60;99.90;;;;;;5076066;28;20200;-73
2022/02/13 02:00:59;;;;;;;26.48;18.13;;;-1.60;99.90;;;;;;5080518;28;20230;-72
2022/02/13 02:03:25;;;;;;;31.38;19.00;;;-1.50;99.90;;;;;;5086079;28;20204;-72
2022/02/13 02:05:52;;;;;;;29.70;16.90;;;-1.60;99.90;;;;;;5085425;28;20220;-72
2022/02/13 02:08:18;;;;;;;26.30;17.95;;;-1.60;99.90;;;;;;5085932;28;20200;-72
2022/02/13 02:10:48;;;;;;;24.77;17.02;;;-1.60;99.90;;;;;;5086546;28;20195;-72
2022/02/13 02:13:14;;;;;;;32.75;18.27;;;-1.50;99.90;;;;;;5087395;28;20200;-72
2022/02/13 02:15:41;;;;;;;23.85;16.02;;;-1.60;99.90;;;;;;5086534;28;20200;-72
2022/02/13 02:18:07;;;;;;;28.05;16.50;;;-1.60;99.90;;;;;;5067892;28;20671;-72
2022/02/13 02:20:33;;;;;;;20.63;15.18;;;-1.60;99.90;;;;;;5084567;28;20224;-72
2022/02/13 02:23:03;;;;;;;24.50;15.93;;;-1.60;99.90;;;;;;5083630;28;20187;-72
2022/02/13 02:25:30;;;;;;;28.67;17.25;;;-1.60;99.90;;;;;;5085591;28;20291;-72
2022/02/13 02:27:57;;;;;;;25.15;16.67;;;-1.60;99.90;;;;;;5086097;28;20207;-72
2022/02/13 02:30:24;;;;;;;26.00;17.40;;;-1.50;99.90;;;;;;5083671;28;20208;-72
2022/02/13 02:32:51;;;;;;;22.45;16.60;;;-1.50;99.90;;;;;;5083649;28;20250;-72
2022/02/13 02:35:17;;;;;;;27.60;16.42;;;-1.50;99.90;;;;;;5086146;28;20204;-72
2022/02/13 02:37:43;;;;;;;22.73;16.45;;;-1.60;99.90;;;;;;5086162;28;20565;-72
2022/02/13 02:40:11;;;;;;;21.70;15.63;;;-1.60;99.90;;;;;;5086269;28;20253;-72
2022/02/13 02:42:37;;;;;;;30.10;18.00;;;-1.50;99.90;;;;;;5084522;28;20196;-72
2022/02/13 02:45:04;;;;;;;32.13;18.00;;;-1.50;99.90;;;;;;5085635;28;20207;-73
2022/02/13 02:47:31;;;;;;;28.27;17.13;;;-1.50;99.90;;;;;;5083032;28;20192;-73
2022/02/13 02:49:57;;;;;;;25.55;17.73;;;-1.40;99.90;;;;;;5084387;28;20620;-73
2022/02/13 02:52:23;;;;;;;30.50;19.00;;;-1.40;99.90;;;;;;5085950;28;20199;-73
2022/02/13 02:54:50;;;;;;;33.80;20.65;;;-1.30;99.90;;;;;;5085047;28;20212;-73
2022/02/13 02:57:16;;;;;;;31.25;19.52;;;-1.20;99.90;;;;;;5086057;28;20208;-73
2022/02/13 02:59:43;;;;;;;30.27;18.92;;;-1.20;99.90;;;;;;5086106;28;20231;-73
2022/02/13 03:02:09;;;;;;;34.55;20.13;;;-1.20;99.90;;;;;;5086034;28;20293;-73
2022/02/13 03:04:36;;;;;;;35.47;20.80;;;-1.20;99.90;;;;;;5084866;28;20330;-73
2022/02/13 03:07:02;;;;;;;40.95;27.42;;;-1.20;99.90;;;;;;5085282;28;20625;-73
2022/02/13 03:09:29;;;;;;;54.97;29.75;;;-1.20;99.90;;;;;;5084917;28;20307;-72
2022/02/13 03:11:55;;;;;;;62.25;29.65;;;-1.20;99.90;;;;;;5084392;28;20572;-72
2022/02/13 03:14:22;;;;;;;31.42;21.67;;;-1.20;99.90;;;;;;5068264;28;20219;-73
2022/02/13 03:16:49;;;;;;;30.10;20.42;;;-1.10;99.90;;;;;;5087192;28;20557;-73
2022/02/13 03:19:16;;;;;;;37.00;23.42;;;-1.10;99.90;;;;;;5086350;28;20311;-73
2022/02/13 03:21:42;;;;;;;35.70;20.75;;;-1.10;99.90;;;;;;5086592;28;20196;-73
2022/02/13 03:24:09;;;;;;;34.67;22.08;;;-1.10;99.90;;;;;;5087223;28;20279;-73
2022/02/13 03:26:36;;;;;;;29.98;20.83;;;-1.00;99.90;;;;;;5068886;28;20282;-73
2022/02/13 03:29:03;;;;;;;32.70;20.63;;;-1.00;99.90;;;;;;5086425;28;20263;-73
2022/02/13 03:31:29;;;;;;;24.60;19.25;;;-0.90;99.90;;;;;;5087223;28;20204;-73
2022/02/13 03:33:56;;;;;;;29.95;21.23;;;-0.90;99.90;;;;;;5084661;28;20231;-73
2022/02/13 03:36:23;;;;;;;31.55;19.30;;;-0.90;99.90;;;;;;5085492;28;20214;-73
2022/02/13 03:38:49;;;;;;;26.35;19.52;;;-0.80;99.90;;;;;;5086106;28;20314;-73
2022/02/13 03:41:16;;;;;;;28.35;19.65;;;-0.80;99.90;;;;;;5085700;28;20212;-73
2022/02/13 03:43:42;;;;;;;27.67;19.42;;;-0.80;99.90;;;;;;5085064;28;20192;-73
2022/02/13 03:46:08;;;;;;;32.15;19.83;;;-0.80;99.90;;;;;;5086068;28;20200;-73
2022/02/13 03:48:35;;;;;;;28.55;20.33;;;-0.80;99.90;;;;;;5084452;28;20200;-73
2022/02/13 03:51:01;;;;;;;29.05;21.08;;;-0.80;99.90;;;;;;5085551;28;20196;-73
2022/02/13 03:53:28;;;;;;;30.95;19.65;;;-0.80;99.90;;;;;;5087335;28;20204;-75
2022/02/13 03:55:54;;;;;;;31.98;19.90;;;-0.80;99.90;;;;;;5086489;28;20199;-73
2022/02/13 03:58:20;;;;;;;26.80;18.25;;;-0.80;99.90;;;;;;5086335;28;20208;-73
2022/02/13 04:00:47;;;;;;;26.50;19.30;;;-0.90;99.90;;;;;;5085364;28;20216;-73
2022/02/13 04:03:14;;;;;;;28.88;17.83;;;-0.90;99.90;;;;;;5090433;28;20196;-73
2022/02/13 04:05:40;;;;;;;27.80;19.75;;;-1.00;99.90;;;;;;5089352;28;20207;-73
2022/02/13 04:08:07;;;;;;;32.58;21.50;;;-1.00;99.90;;;;;;5091327;28;20204;-73
2022/02/13 04:10:34;;;;;;;30.75;19.42;;;-1.00;99.90;;;;;;5089973;28;20211;-74
2022/02/13 04:13:00;;;;;;;29.42;19.52;;;-1.00;99.90;;;;;;5091045;28;20285;-73
2022/02/13 04:15:27;;;;;;;25.25;19.88;;;-1.00;99.90;;;;;;5089949;28;20346;-73
2022/02/13 04:17:53;;;;;;;29.77;19.27;;;-1.00;99.90;;;;;;5089640;28;20204;-73
2022/02/13 04:20:20;;;;;;;34.30;21.10;;;-1.00;99.90;;;;;;5090351;28;20216;-73
2022/02/13 04:22:46;;;;;;;26.70;18.02;;;-1.10;99.90;;;;;;5089357;28;20255;-73
2022/02/13 04:25:13;;;;;;;26.98;19.00;;;-1.10;99.90;;;;;;5090282;28;20199;-73
2022/02/13 04:27:40;;;;;;;28.55;18.90;;;-1.10;99.90;;;;;;5089860;28;20208;-73
2022/02/13 04:30:07;;;;;;;29.48;20.08;;;-1.10;99.90;;;;;;5090125;28;20208;-73
2022/02/13 04:32:34;;;;;;;28.25;18.77;;;-1.00;99.90;;;;;;5089003;28;20216;-73
2022/02/13 04:35:00;;;;;;;31.77;18.65;;;-1.10;99.90;;;;;;5088579;28;20244;-73
2022/02/13 04:37:27;;;;;;;34.75;20.65;;;-1.10;99.90;;;;;;5089965;28;20192;-76
2022/02/13 04:39:53;;;;;;;33.20;19.40;;;-1.00;99.90;;;;;;5088868;28;20216;-73
2022/02/13 04:42:20;;;;;;;27.38;18.55;;;-1.00;99.90;;;;;;5090039;28;20227;-73
2022/02/13 04:44:46;;;;;;;29.90;19.42;;;-1.10;99.90;;;;;;5089983;28;20196;-73
2022/02/13 04:47:13;;;;;;;26.85;19.55;;;-1.10;99.90;;;;;;5090794;28;20192;-73
2022/02/13 04:49:39;;;;;;;25.50;19.60;;;-1.10;99.90;;;;;;5090713;28;20219;-73
2022/02/13 04:52:06;;;;;;;30.33;19.40;;;-1.10;99.90;;;;;;5089664;28;20204;-73
2022/02/13 04:54:32;;;;;;;30.45;17.60;;;-1.10;99.90;;;;;;5089566;28;20250;-73
2022/02/13 04:57:01;;;;;;;28.58;19.02;;;-1.10;99.90;;;;;;5089515;28;20203;-73
2022/02/13 04:59:33;;;;;;;28.30;18.52;;;-1.10;99.90;;;;;;5089095;28;20602;-72
2022/02/13 05:02:00;;;;;;;26.27;17.90;;;-1.10;99.90;;;;;;5090186;28;20215;-73
2022/02/13 05:04:29;;;;;;;28.02;17.55;;;-1.20;99.90;;;;;;5089561;28;20230;-73
2022/02/13 05:06:55;;;;;;;33.03;19.42;;;-1.30;99.90;;;;;;5089658;28;20231;-73
2022/02/13 05:09:21;;;;;;;26.33;17.67;;;-1.30;99.90;;;;;;5090469;28;20208;-73
2022/02/13 05:11:48;;;;;;;29.83;19.92;;;-1.20;99.90;;;;;;5088352;28;20203;-72
2022/02/13 05:14:15;;;;;;;28.55;19.63;;;-1.20;99.90;;;;;;5089824;28;20272;-73
2022/02/13 05:16:41;;;;;;;34.10;19.92;;;-1.20;99.90;;;;;;5089999;28;20203;-73
2022/02/13 05:19:08;;;;;;;27.40;20.05;;;-1.10;99.90;;;;;;5089706;28;20207;-73
2022/02/13 05:21:34;;;;;;;24.60;17.90;;;-1.10;99.90;;;;;;5089619;28;20200;-73
2022/02/13 05:24:00;;;;;;;26.60;18.27;;;-1.10;99.90;;;;;;5088212;28;20199;-73
2022/02/13 05:26:27;;;;;;;23.52;18.83;;;-1.10;99.90;;;;;;5086951;28;20282;-73
2022/02/13 05:28:54;;;;;;;26.13;18.95;;;-1.20;99.90;;;;;;5089461;28;20766;-73
2022/02/13 05:31:20;;;;;;;28.33;18.95;;;-1.20;99.90;;;;;;5088969;28;20204;-74
2022/02/13 05:33:47;;;;;;;26.80;17.67;;;-1.20;99.90;;;;;;5089304;28;20236;-73
2022/02/13 05:36:13;;;;;;;29.98;19.75;;;-1.20;99.90;;;;;;5089382;28;20215;-73
2022/02/13 05:38:43;;;;;;;26.90;18.50;;;-1.20;99.90;;;;;;5083612;28;20204;-74
2022/02/13 05:41:09;;;;;;;28.13;17.25;;;-1.30;99.90;;;;;;5085349;28;20218;-73
2022/02/13 05:43:36;;;;;;;28.02;19.15;;;-1.30;99.90;;;;;;5089403;28;20203;-73
2022/02/13 05:46:02;;;;;;;25.95;17.90;;;-1.30;99.90;;;;;;5088910;28;20207;-73
2022/02/13 05:48:30;;;;;;;30.98;18.77;;;-1.30;99.90;;;;;;5087920;28;20200;-73
2022/02/13 05:50:56;;;;;;;26.10;19.48;;;-1.30;99.90;;;;;;5087820;28;20206;-73
2022/02/13 05:53:23;;;;;;;30.55;18.63;;;-1.30;99.90;;;;;;5089234;28;20229;-73
2022/02/13 05:55:49;;;;;;;27.88;18.23;;;-1.30;99.90;;;;;;5088211;28;20238;-73
2022/02/13 05:58:16;;;;;;;27.23;17.17;;;-1.30;99.90;;;;;;5087061;28;20254;-72
2022/02/13 06:00:43;;;;;;;28.30;18.38;;;-1.30;99.90;;;;;;5089258;28;20239;-73
2022/02/13 06:03:09;;;;;;;28.92;18.08;;;-1.30;99.90;;;;;;5089512;28;20210;-73
2022/02/13 06:05:37;;;;;;;25.45;18.52;;;-1.30;99.90;;;;;;5087838;28;20287;-73
2022/02/13 06:08:03;;;;;;;26.83;18.45;;;-1.30;99.90;;;;;;5088162;28;20304;-73
2022/02/13 06:10:30;;;;;;;26.45;18.60;;;-1.40;99.90;;;;;;5088345;28;20196;-73
2022/02/13 06:12:56;;;;;;;24.90;18.50;;;-1.40;99.90;;;;;;5088683;28;20215;-73
2022/02/13 06:15:23;;;;;;;27.20;17.48;;;-1.30;99.90;;;;;;5087536;28;20263;-73
2022/02/13 06:17:49;;;;;;;27.60;18.90;;;-1.40;99.90;;;;;;5087380;28;20730;-73
2022/02/13 06:20:16;;;;;;;32.42;20.35;;;-1.40;99.90;;;;;;5087536;28;20245;-73
2022/02/13 06:22:42;;;;;;;33.88;20.80;;;-1.30;99.90;;;;;;5087819;28;20199;-73
2022/02/13 06:25:09;;;;;;;35.85;22.35;;;-1.30;99.90;;;;;;5087538;28;20278;-72
2022/02/13 06:27:36;;;;;;;33.67;21.83;;;-1.40;99.90;;;;;;5083572;28;20207;-72
2022/02/13 06:30:02;;;;;;;29.83;20.33;;;-1.30;99.90;;;;;;5073636;28;20261;-72
2022/02/13 06:32:29;;;;;;;25.55;17.65;;;-1.40;99.90;;;;;;5073405;28;20242;-72
2022/02/13 06:34:55;;;;;;;26.98;19.10;;;-1.40;99.90;;;;;;5074767;28;20200;-72
2022/02/13 06:37:22;;;;;;;27.63;18.58;;;-1.40;99.90;;;;;;5073121;28;20593;-72
2022/02/13 06:39:48;;;;;;;26.30;19.23;;;-1.50;99.90;;;;;;5074168;28;20216;-72
2022/02/13 06:42:15;;;;;;;29.17;19.00;;;-1.50;99.90;;;;;;5074322;28;20204;-72
2022/02/13 06:44:41;;;;;;;34.28;20.90;;;-1.50;99.90;;;;;;5074329;28;20204;-72
2022/02/13 06:47:08;;;;;;;32.63;21.08;;;-1.50;99.90;;;;;;5074331;28;20200;-72
2022/02/13 06:49:34;;;;;;;36.17;21.23;;;-1.50;99.90;;;;;;5072867;28;20205;-72
2022/02/13 06:52:00;;;;;;;29.15;19.83;;;-1.50;99.90;;;;;;5057499;28;20238;-72
2022/02/13 06:54:27;;;;;;;27.05;19.42;;;-1.40;99.90;;;;;;5074110;28;20196;-72
2022/02/13 06:56:53;;;;;;;30.02;19.55;;;-1.40;99.90;;;;;;5074507;28;20196;-72
2022/02/13 06:59:21;;;;;;;26.08;17.58;;;-1.30;99.90;;;;;;5074607;28;20206;-72
2022/02/13 07:01:48;;;;;;;29.08;19.65;;;-1.30;99.90;;;;;;5072720;28;20206;-72
2022/02/13 07:04:15;;;;;;;26.42;18.67;;;-1.20;99.90;;;;;;5074098;28;20572;-72
2022/02/13 07:06:41;;;;;;;26.35;18.02;;;-1.20;99.90;;;;;;5073937;28;20361;-72
2022/02/13 07:09:08;;;;;;;27.52;18.60;;;-1.10;99.90;;;;;;5074811;28;20253;-72
2022/02/13 07:11:35;;;;;;;40.08;24.40;;;-1.10;99.90;;;;;;5074000;28;20249;-72
2022/02/13 07:14:01;;;;;;;28.90;20.45;;;-1.00;99.90;;;;;;5074229;28;20204;-72
2022/02/13 07:16:29;;;;;;;29.52;20.25;;;-1.10;99.90;;;;;;5073489;28;20203;-73
2022/02/13 07:18:59;;;;;;;25.50;19.15;;;-1.00;99.90;;;;;;5074559;28;20196;-70
2022/02/13 07:21:25;;;;;;;26.67;18.15;;;-1.00;99.90;;;;;;5073400;28;20216;-70
2022/02/13 07:23:52;;;;;;;26.25;18.42;;;-0.90;99.90;;;;;;5074824;28;20211;-72
2022/02/13 07:26:18;;;;;;;31.27;18.17;;;-0.90;99.90;;;;;;5074489;28;20199;-70
2022/02/13 07:29:00;;;;;;;29.65;19.05;;;-0.90;99.90;;;;;;5073180;28;20196;-70
2022/02/13 07:31:31;;;;;;;29.08;19.55;;;-0.80;99.90;;;;;;5074235;28;20593;-71
2022/02/13 07:33:58;;;;;;;33.15;19.30;;;-0.70;99.90;;;;;;5073754;28;20236;-71
2022/02/13 07:36:25;;;;;;;23.95;16.60;;;-0.70;99.90;;;;;;5076910;28;20204;-71
2022/02/13 07:38:51;;;;;;;27.13;16.95;;;-0.60;99.90;;;;;;5077785;28;20206;-71
2022/02/13 07:41:18;;;;;;;25.90;17.08;;;-0.50;99.90;;;;;;5078100;28;20219;-71
2022/02/13 07:43:45;;;;;;;22.80;16.65;;;-0.50;99.90;;;;;;5078125;28;20569;-71
2022/02/13 07:46:11;;;;;;;20.77;16.30;;;-0.40;99.90;;;;;;5076981;28;20625;-71
2022/02/13 07:48:38;;;;;;;27.67;17.55;;;-0.30;99.90;;;;;;5077499;28;20199;-71
2022/02/13 07:51:04;;;;;;;24.30;16.23;;;-0.20;99.90;;;;;;5077317;28;20204;-71
2022/02/13 07:53:31;;;;;;;25.00;16.27;;;-0.10;99.90;;;;;;5077272;28;20214;-71
2022/02/13 07:55:57;;;;;;;27.40;15.02;;;0.00;99.90;;;;;;5077437;28;20208;-71
2022/02/13 07:58:24;;;;;;;27.77;15.77;;;0.00;99.90;;;;;;5077910;28;20249;-71
2022/02/13 08:00:50;;;;;;;21.90;16.33;;;0.10;99.90;;;;;;5059603;28;20271;-71
2022/02/13 08:03:16;;;;;;;20.20;15.18;;;0.20;99.90;;;;;;5077647;28;20219;-71
2022/02/13 08:05:44;;;;;;;22.05;14.32;;;0.30;99.90;;;;;;5076084;28;20207;-71
2022/02/13 08:08:13;;;;;;;19.60;15.02;;;0.40;99.90;;;;;;5077685;28;20204;-71
2022/02/13 08:10:40;;;;;;;18.52;13.65;;;0.50;99.90;;;;;;5077723;28;20258;-71
2022/02/13 08:13:07;;;;;;;22.35;16.10;;;0.60;99.90;;;;;;5077400;28;20207;-71
2022/02/13 08:15:33;;;;;;;19.77;14.35;;;0.70;99.90;;;;;;5076855;28;20253;-71
2022/02/13 08:18:10;;;;;;;22.90;14.60;;;0.80;99.90;;;;;;5075890;28;20207;-71
2022/02/13 08:20:37;;;;;;;19.20;13.98;;;0.90;99.90;;;;;;5076985;28;20282;-71
2022/02/13 08:23:04;;;;;;;18.25;13.77;;;1.00;99.90;;;;;;5077111;28;20547;-71
2022/02/13 08:25:31;;;;;;;17.17;13.20;;;1.10;99.90;;;;;;5077269;28;20562;-72
2022/02/13 08:27:57;;;;;;;18.70;13.75;;;1.20;99.90;;;;;;5075167;28;20199;-71
2022/02/13 08:30:24;;;;;;;19.33;14.68;;;1.40;99.90;;;;;;5076155;28;20728;-71
2022/02/13 08:32:50;;;;;;;20.23;14.25;;;1.50;99.90;;;;;;5076741;28;20605;-71
2022/02/13 08:35:17;;;;;;;23.60;15.20;;;1.60;99.90;;;;;;5077003;28;20216;-71
2022/02/13 08:37:43;;;;;;;19.23;13.68;;;1.60;99.90;;;;;;5076474;28;20207;-71
2022/02/13 08:40:11;;;;;;;21.42;14.73;;;1.80;99.90;;;;;;5076451;28;20224;-71
2022/02/13 08:42:37;;;;;;;26.52;16.58;;;1.80;99.90;;;;;;5075220;28;20206;-72
2022/02/13 08:45:04;;;;;;;21.65;15.20;;;1.90;99.90;;;;;;5058612;28;20222;-71
2022/02/13 08:47:31;;;;;;;20.42;14.82;;;2.10;99.90;;;;;;5074331;28;20200;-71
2022/02/13 08:49:57;;;;;;;19.05;14.98;;;2.20;99.90;;;;;;5076095;28;20203;-71
2022/02/13 08:52:23;;;;;;;18.80;14.35;;;2.20;99.90;;;;;;5076997;28;20195;-71
2022/02/13 08:54:50;;;;;;;17.77;13.98;;;2.30;99.90;;;;;;5058879;28;20519;-71
2022/02/13 08:57:16;;;;;;;23.27;16.63;;;2.30;99.90;;;;;;5075270;28;20204;-71
2022/02/13 08:59:43;;;;;;;17.90;13.07;;;2.40;99.90;;;;;;5076024;28;20706;-72
2022/02/13 09:02:09;;;;;;;22.58;14.18;;;2.60;99.90;;;;;;5074845;28;20211;-72
2022/02/13 09:04:36;;;;;;;22.00;13.35;;;2.70;99.90;;;;;;5075334;28;20196;-72
2022/02/13 09:07:03;;;;;;;16.70;14.65;;;2.60;99.90;;;;;;5076124;28;20224;-71
2022/02/13 09:09:32;;;;;;;16.45;12.85;;;2.70;99.90;;;;;;5074391;28;20191;-72
2022/02/13 09:11:59;;;;;;;17.00;12.75;;;2.70;99.90;;;;;;5075819;28;20211;-72
2022/02/13 09:14:26;;;;;;;18.52;13.85;;;2.60;99.90;;;;;;5076388;28;20227;-72
2022/02/13 09:16:52;;;;;;;17.90;13.88;;;2.80;99.90;;;;;;5075153;28;20207;-71
2022/02/13 09:19:20;;;;;;;16.55;11.75;;;2.90;99.90;;;;;;5077014;28;20257;-71
2022/02/13 09:21:52;;;;;;;19.27;13.75;;;3.00;99.90;;;;;;5076365;28;20226;-72
2022/02/13 09:24:19;;;;;;;22.20;16.35;;;3.20;99.90;;;;;;5075790;28;20200;-72
2022/02/13 09:26:46;;;;;;;19.08;15.60;;;3.20;99.90;;;;;;5075792;28;20234;-72
2022/02/13 09:29:13;;;;;;;18.23;13.88;;;3.30;99.90;;;;;;5076441;28;20264;-72
2022/02/13 09:31:40;;;;;;;18.13;13.90;;;3.40;99.90;;;;;;5076155;28;20208;-73
2022/02/13 09:34:07;;;;;;;20.65;14.80;;;3.50;99.90;;;;;;5075793;28;20755;-74
2022/02/13 09:36:33;;;;;;;20.27;16.35;;;3.60;99.90;;;;;;5076736;28;20207;-73
2022/02/13 09:39:00;;;;;;;17.40;13.70;;;3.70;99.90;;;;;;5076134;28;20200;-73
2022/02/13 09:41:27;;;;;;;18.48;14.02;;;3.90;99.90;;;;;;5075585;28;20224;-73
2022/02/13 09:43:56;;;;;;;19.60;13.85;;;3.90;99.90;;;;;;5075946;28;20249;-73
2022/02/13 09:46:25;;;;;;;21.45;14.02;;;4.00;99.90;;;;;;5074181;28;20203;-73
2022/02/13 09:48:52;;;;;;;19.65;12.80;;;4.10;99.90;;;;;;5076508;28;20195;-74
2022/02/13 09:51:18;;;;;;;18.85;12.90;;;4.10;99.90;;;;;;5075323;28;20200;-74
2022/02/13 09:53:45;;;;;;;15.93;12.52;;;4.20;99.90;;;;;;5075394;28;20208;-73
2022/02/13 09:56:12;;;;;;;19.98;13.50;;;4.30;99.90;;;;;;5057612;28;20264;-73
2022/02/13 09:58:38;;;;;;;18.45;13.65;;;4.40;99.90;;;;;;5057509;28;20200;-73
2022/02/13 10:01:06;;;;;;;17.35;11.95;;;4.50;99.90;;;;;;5075025;28;20223;-73
2022/02/13 10:03:35;;;;;;;17.10;13.85;;;4.60;99.90;;;;;;5075548;28;20192;-73
2022/02/13 10:06:20;;;;;;;17.13;13.38;;;4.80;99.90;;;;;;5074745;28;20633;-73
2022/02/13 10:08:49;;;;;;;17.27;13.05;;;4.80;99.90;;;;;;5075044;28;20545;-73
2022/02/13 10:11:30;;;;;;;19.50;12.57;;;5.10;99.90;;;;;;5075293;28;20213;-73
2022/02/13 10:14:01;;;;;;;16.60;12.45;;;5.30;99.90;;;;;;5075511;28;20714;-75
2022/02/13 10:16:34;;;;;;;16.95;11.70;;;5.50;99.90;;;;;;5078308;28;20196;-75
2022/02/13 10:19:06;;;;;;;15.05;12.32;;;5.40;99.90;;;;;;5078304;28;20286;-75
2022/02/13 10:21:41;;;;;;;15.48;12.00;;;5.40;99.90;;;;;;5078556;28;20223;-75
2022/02/13 10:24:19;;;;;;;14.65;12.05;;;5.50;99.90;;;;;;5077617;28;20546;-75
2022/02/13 10:26:50;;;;;;;17.08;12.05;;;5.60;99.90;;;;;;5079730;28;20525;-75
2022/02/13 10:29:19;;;;;;;14.68;11.65;;;5.70;99.90;;;;;;5077778;28;20333;-75
2022/02/13 10:31:45;;;;;;;15.75;12.23;;;5.90;99.90;;;;;;5075916;28;20203;-75
2022/02/13 10:34:14;;;;;;;20.50;12.55;;;6.00;99.90;;;;;;5075569;28;20232;-75
2022/02/13 10:36:44;;;;;;;16.02;12.40;;;6.20;99.90;;;;;;5075619;28;20663;-73
2022/02/13 10:39:24;;;;;;;18.60;13.90;;;6.20;99.90;;;;;;5077797;28;20663;-73
2022/02/13 10:41:52;;;;;;;14.73;10.95;;;6.30;99.90;;;;;;5078811;28;20215;-73
2022/02/13 10:44:25;;;;;;;20.73;11.23;;;6.40;99.90;;;;;;5077319;28;20208;-72
2022/02/13 10:46:52;;;;;;;20.10;12.45;;;6.60;99.90;;;;;;5077171;28;20183;-74
2022/02/13 10:49:19;;;;;;;17.63;12.93;;;6.70;99.90;;;;;;5078564;28;20271;-74
2022/02/13 10:51:46;;;;;;;17.05;13.13;;;6.90;99.90;;;;;;5078948;28;20681;-74
2022/02/13 10:54:12;;;;;;;14.85;11.85;;;7.00;99.90;;;;;;5076420;28;20223;-74
2022/02/13 10:56:41;;;;;;;13.57;11.10;;;6.90;99.90;;;;;;5076900;28;20655;-74
2022/02/13 10:59:11;;;;;;;16.77;12.70;;;6.90;99.90;;;;;;5076179;28;20204;-74
2022/02/13 11:01:38;;;;;;;17.17;13.05;;;6.80;99.90;;;;;;5077617;28;20298;-74
2022/02/13 11:04:05;;;;;;;15.52;11.10;;;7.00;99.90;;;;;;5079002;28;20215;-74
2022/02/13 11:06:35;;;;;;;16.50;11.80;;;7.30;99.90;;;;;;5078601;28;20220;-74
2022/02/13 11:09:17;;;;;;;14.35;11.50;;;7.80;99.90;;;;;;5076391;28;20270;-74
2022/02/13 11:11:47;;;;;;;15.25;10.75;;;8.40;99.90;;;;;;5078412;28;20208;-75
2022/02/13 11:14:30;;;;;;;14.90;12.63;;;8.40;99.90;;;;;;5078830;28;20271;-75
2022/02/13 11:16:59;;;;;;;12.93;11.63;;;8.30;99.90;;;;;;5079420;28;20199;-75
2022/02/13 11:19:27;;;;;;;16.60;12.48;;;8.50;99.90;;;;;;5079194;28;20665;-75
2022/02/13 11:21:54;;;;;;;14.40;10.73;;;8.80;99.90;;;;;;5076183;28;20227;-75
2022/02/13 11:24:32;;;;;;;22.50;12.77;;;8.90;99.90;;;;;;5077787;28;20203;-75
2022/02/13 11:27:01;;;;;;;12.68;11.25;;;9.10;99.90;;;;;;5078812;28;20210;-75
2022/02/13 11:29:51;;;;;;;16.95;11.52;;;9.50;99.90;;;;;;5077050;28;20192;-74
2022/02/13 11:32:34;;;;;;;14.63;12.10;;;9.70;99.90;;;;;;5076567;28;20306;-74
2022/02/13 11:35:02;;;;;;;15.48;11.32;;;10.30;99.90;;;;;;5076986;28;20191;-74
2022/02/13 11:37:43;;;;;;;14.07;11.97;;;10.80;99.90;;;;;;5076747;28;20778;-75
2022/02/13 11:40:35;;;;;;;13.53;11.67;;;10.80;99.90;;;;;;5076849;28;20590;-75
2022/02/13 11:43:02;;;;;;;18.73;11.43;;;10.80;99.90;;;;;;5076520;28;20677;-75
2022/02/13 11:45:41;;;;;;;12.10;10.90;;;10.80;99.90;;;;;;5076592;28;20767;-75
2022/02/13 11:48:33;;;;;;;15.10;11.70;;;11.10;99.90;;;;;;5077105;28;20649;-74
2022/02/13 11:51:00;;;;;;;11.87;10.87;;;11.00;99.90;;;;;;5077859;28;20714;-73
2022/02/13 11:53:29;;;;;;;12.50;11.30;;;10.70;99.90;;;;;;5076862;28;20617;-74
2022/02/13 11:56:28;;;;;;;17.77;10.93;;;11.20;99.90;;;;;;5078220;28;21006;-75
2022/02/13 11:58:55;;;;;;;12.97;10.70;;;11.20;99.90;;;;;;5078314;28;20602;-74
2022/02/13 12:01:41;;;;;;;12.60;11.50;;;11.90;99.90;;;;;;5079106;28;20670;-74
2022/02/13 12:04:09;;;;;;;16.57;10.97;;;12.00;99.90;;;;;;5079300;28;20621;-75
2022/02/13 12:06:36;;;;;;;13.73;11.47;;;12.10;99.90;;;;;;5077679;28;20639;-74
2022/02/13 12:09:08;;;;;;;12.60;10.17;;;12.00;99.90;;;;;;5077761;28;20617;-73
2022/02/13 12:11:37;;;;;;;13.33;11.00;;;12.10;99.90;;;;;;5077813;28;20731;-75
2022/02/13 12:14:21;;;;;;;12.17;10.97;;;12.10;99.90;;;;;;5077055;28;20606;-74
2022/02/13 12:16:52;;;;;;;11.20;10.27;;;12.10;99.90;;;;;;5077444;28;20677;-74
2022/02/13 12:19:28;;;;;;;12.00;10.87;;;12.50;99.90;;;;;;5075964;28;20593;-74
2022/02/13 12:22:05;;;;;;;11.93;10.73;;;12.40;99.90;;;;;;5076309;28;21091;-74
2022/02/13 12:24:32;;;;;;;15.23;12.17;;;12.80;99.90;;;;;;5077631;28;20610;-75
2022/02/13 12:27:00;;;;;;;21.10;13.83;;;12.80;99.90;;;;;;5061096;28;20732;-75
2022/02/13 12:29:27;;;;;;;13.60;12.30;;;13.00;99.90;;;;;;5079175;28;20701;-74
2022/02/13 12:32:08;;;;;;;12.07;11.00;;;12.60;99.90;;;;;;5076703;28;20684;-74
2022/02/13 12:34:54;;;;;;;14.53;12.33;;;12.70;99.90;;;;;;5077496;28;20616;-74